Time;durP1;ratioP1;P1;durP2;ratioP2;P2;SDS_P1;SDS_P2;PMS_P1;PMS_P2;Temp;Humidity;BMP_temperature;BMP_pressure;BME280_temperature;BME280_humidity;BME280_pressure;Samples;Min_cycle;Max_cycle;Signal;HPM_P1;HPM_P2
2022/01/30 00:01:01;;;;;;;14.23;6.65;;;;;;;;;;4986912;28;20459;-85
2022/01/30 00:03:27;;;;;;;13.32;7.03;;;;;;;;;;4988914;28;20041;-85
2022/01/30 00:05:54;;;;;;;12.27;5.93;;;;;;;;;;4990070;28;20033;-85
2022/01/30 00:08:20;;;;;;;9.02;4.20;;;;;;;;;;4989024;28;20062;-85
2022/01/30 00:10:52;;;;;;;11.30;5.47;;;;;;;;;;4991027;28;20025;-85
2022/01/30 00:13:20;;;;;;;13.27;5.10;;;;;;;;;;4987616;28;20464;-85
2022/01/30 00:15:52;;;;;;;9.05;4.75;;;;;;;;;;4988850;28;20483;-85
2022/01/30 00:21:11;;;;;;;9.93;5.72;;;;;;;;;;4990953;28;20022;-85
2022/01/30 00:23:45;;;;;;;12.23;5.50;;;;;;;;;;4986898;28;20514;-84
2022/01/30 00:26:14;;;;;;;9.25;4.45;;;;;;;;;;4989539;28;20030;-85
2022/01/30 00:28:40;;;;;;;11.50;5.60;;;;;;;;;;5002983;28;20483;-86
2022/01/30 00:31:06;;;;;;;8.68;4.97;;;;;;;;;;4986331;28;20049;-85
2022/01/30 00:33:32;;;;;;;8.15;3.95;;;;;;;;;;4987953;28;20029;-85
2022/01/30 00:35:58;;;;;;;10.32;4.00;;;;;;;;;;4991239;28;20027;-85
2022/01/30 00:38:26;;;;;;;7.72;3.75;;;;;;;;;;4975101;28;20034;-85
2022/01/30 00:40:52;;;;;;;8.45;4.43;;;;;;;;;;4990353;28;20504;-85
2022/01/30 00:43:19;;;;;;;10.32;4.32;;;;;;;;;;4987675;28;20038;-85
2022/01/30 00:45:45;;;;;;;8.98;4.88;;;;;;;;;;4987516;28;20053;-85
2022/01/30 00:48:11;;;;;;;12.32;5.28;;;;;;;;;;4988325;28;20034;-85
2022/01/30 00:50:38;;;;;;;9.98;4.65;;;;;;;;;;4987376;28;20069;-85
2022/01/30 00:53:05;;;;;;;9.55;4.43;;;;;;;;;;4989251;28;20030;-85
2022/01/30 00:55:32;;;;;;;11.38;4.68;;;;;;;;;;4989151;28;20030;-85
2022/01/30 00:57:59;;;;;;;9.45;4.82;;;;;;;;;;4988299;28;20116;-85
2022/01/30 01:00:25;;;;;;;9.43;4.85;;;;;;;;;;4986489;28;20038;-85
2022/01/30 01:02:51;;;;;;;11.25;5.07;;;;;;;;;;4990674;28;20085;-85
2022/01/30 01:05:17;;;;;;;10.15;4.65;;;;;;;;;;5005387;28;20022;-86
2022/01/30 01:07:46;;;;;;;8.63;4.05;;;;;;;;;;5012407;28;20260;-85
2022/01/30 01:10:30;;;;;;;6.30;3.03;;;;;;;;;;4990587;28;20038;-85
2022/01/30 01:23:34;;;;;;;8.73;3.97;;;;;;;;;;4992715;28;20173;-85
2022/01/30 01:26:01;;;;;;;9.18;3.22;;;;;;;;;;5018743;28;20018;-85
2022/01/30 01:28:27;;;;;;;3.22;1.98;;;;;;;;;;5010535;28;20034;-86
2022/01/30 01:30:53;;;;;;;5.38;2.65;;;;;;;;;;4991341;28;20039;-84
2022/01/30 01:33:20;;;;;;;8.70;3.78;;;;;;;;;;4990983;28;20034;-85
2022/01/30 01:35:46;;;;;;;6.22;2.88;;;;;;;;;;4989669;28;20041;-85
2022/01/30 01:38:14;;;;;;;8.68;3.92;;;;;;;;;;4991359;28;20068;-85
2022/01/30 01:40:41;;;;;;;6.68;3.40;;;;;;;;;;5024115;28;20034;-85
2022/01/30 01:43:07;;;;;;;4.80;2.25;;;;;;;;;;4991055;28;20073;-85
2022/01/30 01:45:39;;;;;;;7.65;3.20;;;;;;;;;;4990780;28;20491;-85
2022/01/30 01:48:13;;;;;;;6.68;3.25;;;;;;;;;;4990565;28;20042;-84
2022/01/30 01:50:40;;;;;;;6.03;3.33;;;;;;;;;;4992459;28;20029;-85
2022/01/30 01:53:08;;;;;;;9.70;3.65;;;;;;;;;;4991433;28;20557;-85
2022/01/30 01:55:34;;;;;;;8.20;3.25;;;;;;;;;;5011191;28;20022;-85
2022/01/30 01:58:00;;;;;;;6.30;2.90;;;;;;;;;;4990658;28;20030;-84
2022/01/30 02:00:26;;;;;;;7.88;3.72;;;;;;;;;;4991637;28;20026;-85
2022/01/30 02:02:53;;;;;;;5.45;2.85;;;;;;;;;;4989208;28;20038;-84
2022/01/30 02:05:20;;;;;;;7.18;3.25;;;;;;;;;;5004344;28;20069;-85
2022/01/30 02:10:34;;;;;;;7.70;3.50;;;;;;;;;;4990694;28;20491;-85
2022/01/30 02:13:18;;;;;;;6.60;3.15;;;;;;;;;;4990644;28;20045;-85
2022/01/30 02:24:07;;;;;;;9.63;3.20;;;;;;;;;;4990335;28;20073;-84
2022/01/30 02:26:40;;;;;;;6.65;3.42;;;;;;;;;;4988722;28;20038;-84
2022/01/30 02:29:06;;;;;;;6.00;2.97;;;;;;;;;;4992355;28;20022;-84
2022/01/30 02:31:35;;;;;;;6.85;3.60;;;;;;;;;;4993280;28;20026;-84
2022/01/30 02:34:01;;;;;;;6.35;3.15;;;;;;;;;;4988879;28;20089;-84
2022/01/30 02:36:27;;;;;;;5.75;3.13;;;;;;;;;;4991139;28;20030;-84
2022/01/30 02:38:57;;;;;;;3.00;1.60;;;;;;;;;;4989687;28;20041;-83
2022/01/30 02:41:23;;;;;;;6.47;3.10;;;;;;;;;;4988684;28;20023;-85
2022/01/30 02:44:05;;;;;;;5.97;2.65;;;;;;;;;;5014621;28;20037;-85
2022/01/30 02:46:34;;;;;;;6.05;2.80;;;;;;;;;;4990511;28;20463;-84
2022/01/30 02:49:12;;;;;;;7.85;2.85;;;;;;;;;;4990228;28;20037;-85
2022/01/30 02:51:47;;;;;;;5.20;2.40;;;;;;;;;;4989882;28;20109;-85
2022/01/30 02:54:13;;;;;;;7.60;2.70;;;;;;;;;;4989299;28;20380;-84
2022/01/30 02:56:40;;;;;;;5.40;2.40;;;;;;;;;;4987834;28;20031;-84
2022/01/30 02:59:06;;;;;;;6.35;2.63;;;;;;;;;;4992175;28;20403;-84
2022/01/30 03:01:33;;;;;;;3.95;1.98;;;;;;;;;;5009923;28;20077;-84
2022/01/30 03:03:59;;;;;;;4.85;1.92;;;;;;;;;;4991114;28;20470;-85
2022/01/30 03:06:25;;;;;;;5.32;2.58;;;;;;;;;;4988707;28;20117;-85
2022/01/30 03:08:52;;;;;;;4.55;2.45;;;;;;;;;;4989787;28;20176;-85
2022/01/30 03:11:18;;;;;;;4.32;2.10;;;;;;;;;;4989103;28;20042;-84
2022/01/30 03:13:44;;;;;;;4.88;2.42;;;;;;;;;;5021886;28;20033;-84
2022/01/30 03:16:10;;;;;;;7.50;2.85;;;;;;;;;;4987924;28;20081;-85
2022/01/30 03:18:36;;;;;;;5.45;2.88;;;;;;;;;;4990444;28;20034;-86
2022/01/30 03:21:02;;;;;;;4.90;2.75;;;;;;;;;;4988943;28;20030;-86
2022/01/30 03:23:29;;;;;;;7.18;2.70;;;;;;;;;;4988083;28;20038;-86
2022/01/30 03:25:58;;;;;;;5.93;3.05;;;;;;;;;;5008987;28;20073;-86
2022/01/30 03:28:25;;;;;;;5.70;2.50;;;;;;;;;;4994727;28;20445;-86
2022/01/30 03:30:55;;;;;;;4.38;2.30;;;;;;;;;;4991305;28;20026;-85
2022/01/30 03:33:22;;;;;;;6.68;2.60;;;;;;;;;;4992098;28;20045;-84
2022/01/30 03:35:48;;;;;;;5.03;2.30;;;;;;;;;;4995414;28;20026;-85
2022/01/30 03:38:19;;;;;;;7.20;3.03;;;;;;;;;;4993005;28;20026;-85
2022/01/30 03:40:45;;;;;;;6.00;2.90;;;;;;;;;;4995430;28;20018;-85
2022/01/30 03:43:11;;;;;;;6.43;3.25;;;;;;;;;;4990920;28;20049;-85
2022/01/30 03:45:37;;;;;;;7.50;3.47;;;;;;;;;;4990691;28;20037;-85
2022/01/30 03:48:03;;;;;;;5.15;2.75;;;;;;;;;;4991206;28;20045;-85
2022/01/30 03:50:30;;;;;;;6.38;3.03;;;;;;;;;;4991396;28;20526;-85
2022/01/30 03:52:56;;;;;;;6.10;2.63;;;;;;;;;;4993217;28;20033;-85
2022/01/30 03:55:22;;;;;;;6.10;2.70;;;;;;;;;;4991726;28;20026;-84
2022/01/30 03:57:48;;;;;;;6.95;2.90;;;;;;;;;;4989862;28;20041;-85
2022/01/30 04:00:15;;;;;;;6.22;2.13;;;;;;;;;;4989805;28;20025;-85
2022/01/30 04:02:41;;;;;;;5.05;2.55;;;;;;;;;;4990498;28;20053;-85
2022/01/30 04:05:07;;;;;;;4.90;2.42;;;;;;;;;;5005155;28;20058;-85
2022/01/30 04:07:33;;;;;;;5.53;2.53;;;;;;;;;;5011732;28;20395;-85
2022/01/30 04:09:59;;;;;;;5.28;2.50;;;;;;;;;;4991356;28;20045;-85
2022/01/30 04:12:25;;;;;;;5.07;2.90;;;;;;;;;;4989526;28;20050;-86
2022/01/30 04:14:52;;;;;;;7.47;3.75;;;;;;;;;;4989646;28;20031;-86
2022/01/30 04:17:21;;;;;;;6.28;2.90;;;;;;;;;;4990779;28;20046;-84
2022/01/30 04:19:47;;;;;;;9.15;2.72;;;;;;;;;;5012233;28;20028;-86
2022/01/30 04:22:13;;;;;;;5.93;3.15;;;;;;;;;;4990186;28;20050;-85
2022/01/30 04:24:40;;;;;;;6.20;2.33;;;;;;;;;;4991822;28;20026;-85
2022/01/30 04:27:06;;;;;;;4.65;2.13;;;;;;;;;;4990945;28;20314;-85
2022/01/30 04:29:32;;;;;;;6.38;2.63;;;;;;;;;;4990137;28;20034;-84
2022/01/30 04:31:58;;;;;;;3.75;2.20;;;;;;;;;;5018320;28;20026;-84
2022/01/30 04:34:26;;;;;;;5.57;2.40;;;;;;;;;;5007367;28;20034;-85
2022/01/30 04:36:58;;;;;;;4.55;2.35;;;;;;;;;;4989098;28;20026;-85
2022/01/30 04:51:59;;;;;;;4.20;2.08;;;;;;;;;;4992809;28;20495;-85
2022/01/30 04:56:41;;;;;;;5.22;1.85;;;;;;;;;;4998088;28;20595;-84
2022/01/30 05:01:35;;;;;;;4.15;2.20;;;;;;;;;;4993009;28;20102;-85
2022/01/30 05:04:19;;;;;;;;;;;;;;;;;;4993264;28;20501;-85
2022/01/30 05:09:28;;;;;;;2.33;0.98;;;;;;;;;;4990736;28;20458;-85
2022/01/30 05:11:55;;;;;;;4.82;2.33;;;;;;;;;;4989705;28;20494;-84
2022/01/30 05:14:24;;;;;;;5.93;2.10;;;;;;;;;;4992186;28;20018;-84
2022/01/30 05:16:50;;;;;;;3.28;2.08;;;;;;;;;;5013129;28;20076;-84
2022/01/30 05:19:16;;;;;;;5.03;2.35;;;;;;;;;;4991138;28;20117;-85
2022/01/30 05:21:42;;;;;;;7.22;2.33;;;;;;;;;;4989435;28;20125;-85
2022/01/30 05:24:09;;;;;;;3.75;1.88;;;;;;;;;;4989573;28;20030;-84
2022/01/30 05:26:37;;;;;;;4.93;1.98;;;;;;;;;;4989942;28;20026;-85
2022/01/30 05:29:03;;;;;;;;;;;;;;;;;;4995440;28;20034;-84
2022/01/30 05:31:29;;;;;;;4.25;2.00;;;;;;;;;;5011993;28;20374;-84
2022/01/30 05:33:55;;;;;;;4.97;2.20;;;;;;;;;;4992501;28;20018;-84
2022/01/30 05:36:21;;;;;;;5.40;2.10;;;;;;;;;;4990073;28;20113;-84
2022/01/30 05:38:48;;;;;;;4.07;2.00;;;;;;;;;;4990144;28;20050;-84
2022/01/30 05:41:14;;;;;;;4.70;2.28;;;;;;;;;;4992097;28;20045;-85
2022/01/30 05:43:41;;;;;;;0.80;0.63;;;;;;;;;;4992444;28;20049;-85
2022/01/30 05:46:14;;;;;;;4.90;2.35;;;;;;;;;;4985270;28;20397;-84
2022/01/30 05:48:40;;;;;;;5.55;2.05;;;;;;;;;;4990147;28;20034;-85
2022/01/30 05:51:06;;;;;;;8.73;2.83;;;;;;;;;;4989776;28;20033;-84
2022/01/30 05:53:32;;;;;;;4.50;2.10;;;;;;;;;;4992293;28;20031;-85
2022/01/30 05:55:58;;;;;;;4.72;2.10;;;;;;;;;;4994442;28;20031;-84
2022/01/30 05:58:24;;;;;;;3.15;1.33;;;;;;;;;;4993207;28;20407;-84
2022/01/30 06:00:50;;;;;;;2.00;1.30;;;;;;;;;;4991322;28;20027;-85
2022/01/30 06:03:16;;;;;;;3.95;1.70;;;;;;;;;;4991865;28;20443;-84
2022/01/30 06:05:45;;;;;;;7.97;2.35;;;;;;;;;;4991838;28;20404;-84
2022/01/30 06:08:27;;;;;;;4.80;2.30;;;;;;;;;;4992933;28;20019;-84
2022/01/30 06:10:53;;;;;;;4.32;2.10;;;;;;;;;;5012881;28;20087;-85
2022/01/30 06:13:19;;;;;;;4.85;2.30;;;;;;;;;;4989215;28;20081;-84
2022/01/30 06:15:45;;;;;;;3.78;1.80;;;;;;;;;;4991036;28;20026;-85
2022/01/30 06:18:11;;;;;;;5.38;1.80;;;;;;;;;;4990767;28;20057;-84
2022/01/30 06:20:37;;;;;;;4.65;1.88;;;;;;;;;;4990009;28;20038;-84
2022/01/30 06:23:03;;;;;;;7.40;2.65;;;;;;;;;;5001098;28;20105;-84
2022/01/30 06:25:29;;;;;;;6.30;2.50;;;;;;;;;;5007873;28;20042;-84
2022/01/30 06:27:55;;;;;;;5.88;2.13;;;;;;;;;;5002106;28;20026;-85
2022/01/30 06:30:21;;;;;;;4.47;1.60;;;;;;;;;;4987911;28;20476;-84
2022/01/30 06:32:48;;;;;;;6.60;2.30;;;;;;;;;;5003876;28;20033;-83
2022/01/30 06:35:14;;;;;;;4.10;1.23;;;;;;;;;;4990434;28;20037;-84
2022/01/30 06:37:40;;;;;;;3.95;1.73;;;;;;;;;;5006057;28;20022;-83
2022/01/30 06:40:07;;;;;;;3.05;1.95;;;;;;;;;;5004935;28;20126;-84
2022/01/30 06:42:33;;;;;;;2.92;1.65;;;;;;;;;;4989549;28;20026;-83
2022/01/30 06:44:59;;;;;;;1.85;1.20;;;;;;;;;;5003854;28;20050;-83
2022/01/30 06:47:25;;;;;;;3.55;1.75;;;;;;;;;;4988579;28;20495;-83
2022/01/30 06:49:51;;;;;;;4.45;1.90;;;;;;;;;;5007119;28;20037;-83
2022/01/30 06:52:17;;;;;;;4.63;1.83;;;;;;;;;;5003100;28;20030;-84
2022/01/30 06:54:44;;;;;;;3.30;1.55;;;;;;;;;;4989430;28;20081;-83
2022/01/30 06:57:10;;;;;;;3.90;1.67;;;;;;;;;;5003342;28;20444;-83
2022/01/30 06:59:36;;;;;;;5.57;1.80;;;;;;;;;;4987594;28;20044;-83
2022/01/30 07:02:02;;;;;;;2.55;1.20;;;;;;;;;;5006215;28;20471;-83
2022/01/30 07:04:28;;;;;;;2.58;1.25;;;;;;;;;;5006906;28;20359;-83
2022/01/30 07:06:55;;;;;;;3.70;1.80;;;;;;;;;;4987490;28;20125;-83
2022/01/30 07:09:21;;;;;;;3.70;1.40;;;;;;;;;;4988557;28;20035;-83
2022/01/30 07:11:46;;;;;;;2.47;1.30;;;;;;;;;;5002912;28;20146;-84
2022/01/30 07:14:12;;;;;;;1.77;1.00;;;;;;;;;;4991016;28;20053;-83
2022/01/30 07:16:38;;;;;;;3.47;1.60;;;;;;;;;;4991908;28;20376;-83
2022/01/30 07:19:04;;;;;;;4.07;1.45;;;;;;;;;;4988628;28;20027;-84
2022/01/30 07:21:30;;;;;;;4.45;1.73;;;;;;;;;;5002676;28;20027;-84
2022/01/30 07:23:56;;;;;;;5.03;1.83;;;;;;;;;;4987828;28;20463;-83
2022/01/30 07:26:22;;;;;;;3.80;1.90;;;;;;;;;;5020104;28;20064;-84
2022/01/30 07:28:48;;;;;;;4.40;1.73;;;;;;;;;;5006369;28;20438;-82
2022/01/30 07:31:14;;;;;;;4.10;1.65;;;;;;;;;;5000621;28;20030;-82
2022/01/30 07:33:40;;;;;;;3.60;1.73;;;;;;;;;;4984830;28;20038;-83
2022/01/30 07:36:07;;;;;;;6.57;1.85;;;;;;;;;;4987004;28;20490;-82
2022/01/30 07:38:35;;;;;;;5.22;1.90;;;;;;;;;;4987001;28;20033;-82
2022/01/30 07:41:01;;;;;;;4.90;2.28;;;;;;;;;;4987911;28;20086;-85
2022/01/30 07:43:27;;;;;;;3.40;1.38;;;;;;;;;;4986202;28;20470;-85
2022/01/30 07:45:53;;;;;;;3.40;1.70;;;;;;;;;;5001804;28;20029;-84
2022/01/30 07:48:19;;;;;;;4.28;1.95;;;;;;;;;;4981467;28;20037;-84
2022/01/30 07:50:45;;;;;;;6.85;3.88;;;;;;;;;;4985038;28;20077;-85
2022/01/30 07:53:11;;;;;;;5.60;2.90;;;;;;;;;;5005819;28;20045;-85
2022/01/30 07:55:37;;;;;;;2.42;1.23;;;;;;;;;;4988219;28;20030;-85
2022/01/30 07:58:03;;;;;;;5.13;1.98;;;;;;;;;;4987796;28;20298;-84
2022/01/30 08:00:29;;;;;;;5.63;1.42;;;;;;;;;;4987582;28;20130;-83
2022/01/30 08:02:55;;;;;;;2.00;1.00;;;;;;;;;;4989863;28;20069;-84
2022/01/30 08:05:21;;;;;;;5.35;2.45;;;;;;;;;;4982462;28;20086;-84
2022/01/30 08:07:47;;;;;;;5.40;2.63;;;;;;;;;;5013873;28;20026;-84
2022/01/30 08:10:13;;;;;;;5.50;2.38;;;;;;;;;;4989501;28;20050;-84
2022/01/30 08:12:39;;;;;;;5.28;2.42;;;;;;;;;;4989563;28;20181;-86
2022/01/30 08:15:05;;;;;;;4.32;1.98;;;;;;;;;;4989697;28;20022;-84
2022/01/30 08:17:33;;;;;;;6.25;2.85;;;;;;;;;;4989030;28;20081;-83
2022/01/30 08:19:59;;;;;;;4.90;2.80;;;;;;;;;;4992234;28;20445;-83
2022/01/30 08:22:28;;;;;;;5.22;2.50;;;;;;;;;;4991588;28;20113;-83
2022/01/30 08:24:55;;;;;;;7.13;3.67;;;;;;;;;;4989727;28;20034;-82
2022/01/30 08:27:21;;;;;;;5.32;2.80;;;;;;;;;;4989224;28;20034;-82
2022/01/30 08:29:46;;;;;;;6.70;3.20;;;;;;;;;;4988617;28;20038;-84
2022/01/30 08:32:13;;;;;;;7.35;5.03;;;;;;;;;;4990394;28;20026;-83
2022/01/30 08:34:42;;;;;;;6.97;4.28;;;;;;;;;;5010203;28;20018;-84
2022/01/30 08:37:08;;;;;;;6.95;3.63;;;;;;;;;;4989962;28;20045;-85
2022/01/30 08:39:35;;;;;;;5.03;2.60;;;;;;;;;;4988986;28;20467;-85
2022/01/30 08:42:01;;;;;;;4.72;2.40;;;;;;;;;;4990808;28;20034;-84
2022/01/30 08:44:27;;;;;;;6.10;3.22;;;;;;;;;;4976695;28;20031;-85
2022/01/30 08:46:53;;;;;;;7.45;3.92;;;;;;;;;;4994318;28;20274;-87
2022/01/30 08:49:19;;;;;;;6.65;2.92;;;;;;;;;;5006826;28;20038;-87
2022/01/30 08:51:45;;;;;;;6.45;3.28;;;;;;;;;;4985241;28;20022;-86
2022/01/30 08:54:11;;;;;;;5.88;3.17;;;;;;;;;;4991831;28;20034;-86
2022/01/30 08:56:37;;;;;;;6.72;3.50;;;;;;;;;;4991777;28;20109;-86
2022/01/30 08:59:03;;;;;;;6.28;3.22;;;;;;;;;;4994675;28;20070;-87
2022/01/30 09:01:33;;;;;;;5.97;2.80;;;;;;;;;;4993436;28;20494;-87
2022/01/30 09:03:59;;;;;;;6.07;3.00;;;;;;;;;;4991743;28;20035;-86
2022/01/30 09:06:25;;;;;;;6.25;3.00;;;;;;;;;;4993217;28;20029;-86
2022/01/30 09:08:51;;;;;;;6.22;3.20;;;;;;;;;;4991039;28;20080;-86
2022/01/30 09:11:17;;;;;;;5.78;3.22;;;;;;;;;;5004387;28;20117;-86
2022/01/30 09:13:43;;;;;;;6.40;3.05;;;;;;;;;;4993099;28;20026;-86
2022/01/30 09:16:09;;;;;;;7.82;3.28;;;;;;;;;;4992830;28;20097;-86
2022/01/30 09:18:38;;;;;;;4.80;2.53;;;;;;;;;;4993416;28;20038;-86
2022/01/30 09:21:04;;;;;;;4.68;2.85;;;;;;;;;;4990254;28;20118;-86
2022/01/30 09:23:30;;;;;;;5.40;2.55;;;;;;;;;;4988294;28;20072;-86
2022/01/30 09:25:56;;;;;;;4.50;2.30;;;;;;;;;;4995277;28;20507;-86
2022/01/30 09:28:22;;;;;;;3.85;2.22;;;;;;;;;;4991428;28;20117;-86
2022/01/30 09:30:48;;;;;;;4.88;2.30;;;;;;;;;;4992599;28;20030;-86
2022/01/30 09:33:14;;;;;;;4.03;1.92;;;;;;;;;;4989372;28;20023;-86
2022/01/30 09:35:40;;;;;;;3.72;1.77;;;;;;;;;;4990480;28;20043;-86
2022/01/30 09:38:07;;;;;;;5.55;2.35;;;;;;;;;;4992274;28;20045;-86
2022/01/30 09:40:33;;;;;;;3.28;1.80;;;;;;;;;;5012651;28;20480;-85
2022/01/30 09:42:59;;;;;;;3.78;2.20;;;;;;;;;;4990501;28;20034;-85
2022/01/30 09:45:25;;;;;;;4.57;2.40;;;;;;;;;;4990034;28;20356;-86
2022/01/30 09:47:52;;;;;;;5.47;2.10;;;;;;;;;;4991011;28;20030;-85
2022/01/30 09:50:18;;;;;;;4.32;1.98;;;;;;;;;;4993170;28;20027;-85
2022/01/30 09:52:46;;;;;;;3.63;1.80;;;;;;;;;;4992025;28;20056;-85
2022/01/30 09:55:12;;;;;;;2.88;1.70;;;;;;;;;;4990659;28;20105;-85
2022/01/30 09:57:40;;;;;;;4.05;1.90;;;;;;;;;;4991443;28;20030;-85
2022/01/30 10:00:08;;;;;;;3.07;1.57;;;;;;;;;;4992669;28;20058;-85
2022/01/30 10:02:34;;;;;;;4.70;1.77;;;;;;;;;;4989235;28;20047;-87
2022/01/30 10:05:00;;;;;;;5.47;2.20;;;;;;;;;;5003510;28;20113;-85
2022/01/30 10:07:40;;;;;;;3.72;1.65;;;;;;;;;;5007606;28;20052;-85
2022/01/30 10:10:10;;;;;;;3.88;1.83;;;;;;;;;;4989528;28;20030;-85
2022/01/30 10:12:37;;;;;;;3.50;1.52;;;;;;;;;;4990322;28;20290;-88
2022/01/30 10:15:05;;;;;;;3.42;1.75;;;;;;;;;;4987361;28;20034;-86
2022/01/30 10:17:34;;;;;;;3.25;1.55;;;;;;;;;;4982236;28;20038;-85
2022/01/30 10:20:06;;;;;;;2.90;1.50;;;;;;;;;;4982684;28;20027;-88
2022/01/30 10:22:32;;;;;;;3.20;1.48;;;;;;;;;;5000985;28;20076;-89
2022/01/30 10:24:58;;;;;;;2.95;1.40;;;;;;;;;;4985627;28;20041;-87
2022/01/30 10:27:25;;;;;;;3.85;1.58;;;;;;;;;;5002532;28;20019;-85
2022/01/30 10:30:03;;;;;;;3.35;1.58;;;;;;;;;;4983419;28;20034;-84
2022/01/30 10:32:30;;;;;;;4.10;1.40;;;;;;;;;;4982817;28;20030;-86
2022/01/30 10:34:59;;;;;;;2.97;1.30;;;;;;;;;;4999908;28;20317;-86
2022/01/30 10:37:25;;;;;;;5.30;1.80;;;;;;;;;;4981816;28;20030;-87
2022/01/30 10:40:11;;;;;;;4.50;1.40;;;;;;;;;;4983949;28;20030;-86
2022/01/30 10:42:38;;;;;;;4.88;2.20;;;;;;;;;;4998421;28;20062;-86
2022/01/30 10:45:04;;;;;;;3.95;2.10;;;;;;;;;;4979698;28;20022;-88
2022/01/30 10:47:32;;;;;;;4.80;2.55;;;;;;;;;;4980572;28;20096;-86
2022/01/30 10:49:58;;;;;;;4.38;2.38;;;;;;;;;;4985877;28;20014;-85
2022/01/30 10:52:24;;;;;;;3.50;1.95;;;;;;;;;;4982258;28;20412;-86
2022/01/30 10:54:51;;;;;;;2.00;1.20;;;;;;;;;;4986751;28;20049;-85
2022/01/30 10:57:17;;;;;;;2.65;1.42;;;;;;;;;;4976414;28;20383;-86
2022/01/30 10:59:46;;;;;;;2.72;1.70;;;;;;;;;;4983295;28;20247;-86
2022/01/30 11:02:16;;;;;;;2.70;1.48;;;;;;;;;;4981503;28;20010;-85
2022/01/30 11:04:43;;;;;;;3.13;1.88;;;;;;;;;;4996645;28;20198;-85
2022/01/30 11:07:09;;;;;;;2.85;1.73;;;;;;;;;;4983516;28;20464;-86
2022/01/30 11:09:43;;;;;;;2.88;1.52;;;;;;;;;;4984311;28;20086;-85
2022/01/30 11:12:17;;;;;;;3.53;1.73;;;;;;;;;;4983212;28;20042;-85
2022/01/30 11:17:15;;;;;;;2.38;1.40;;;;;;;;;;4982482;28;20041;-86
2022/01/30 11:19:42;;;;;;;2.65;1.50;;;;;;;;;;5000557;28;20074;-84
2022/01/30 11:22:11;;;;;;;3.47;1.60;;;;;;;;;;4982678;28;20038;-84
2022/01/30 11:24:57;;;;;;;3.13;1.75;;;;;;;;;;4985676;28;20038;-85
2022/01/30 11:27:23;;;;;;;2.08;1.25;;;;;;;;;;5005654;28;20475;-85
2022/01/30 11:29:50;;;;;;;3.58;1.45;;;;;;;;;;4984059;28;20045;-86
2022/01/30 11:32:17;;;;;;;2.90;1.35;;;;;;;;;;4978970;28;20026;-86
2022/01/30 11:34:44;;;;;;;2.28;1.27;;;;;;;;;;5004622;28;20041;-86
2022/01/30 11:37:11;;;;;;;1.83;1.17;;;;;;;;;;4986485;28;21142;-87
2022/01/30 11:39:41;;;;;;;2.60;1.50;;;;;;;;;;4987702;28;20163;-86
2022/01/30 11:42:07;;;;;;;1.95;1.10;;;;;;;;;;4983643;28;20022;-86
2022/01/30 11:44:34;;;;;;;1.30;0.77;;;;;;;;;;4996930;28;20030;-86
2022/01/30 11:46:59;;;;;;;1.85;1.10;;;;;;;;;;4983232;28;20042;-85
2022/01/30 11:49:39;;;;;;;1.08;0.60;;;;;;;;;;5000490;28;20099;-85
2022/01/30 11:52:10;;;;;;;1.40;0.65;;;;;;;;;;4978753;28;20046;-85
2022/01/30 11:54:43;;;;;;;0.60;0.40;;;;;;;;;;4985883;28;20395;-86
2022/01/30 11:57:21;;;;;;;0.17;0.17;;;;;;;;;;4987472;28;20471;-86
2022/01/30 11:59:54;;;;;;;0.50;0.40;;;;;;;;;;4983313;28;20042;-85
2022/01/30 12:02:29;;;;;;;0.20;0.20;;;;;;;;;;4980734;28;20360;-85
2022/01/30 12:05:03;;;;;;;0.20;0.10;;;;;;;;;;5001554;28;20395;-85
2022/01/30 12:07:33;;;;;;;0.30;0.20;;;;;;;;;;4985442;28;20026;-84
2022/01/30 12:10:18;;;;;;;0.03;0.03;;;;;;;;;;4998601;28;20031;-84
2022/01/30 12:13:04;;;;;;;0.20;0.20;;;;;;;;;;4997336;28;20058;-85
2022/01/30 12:15:46;;;;;;;0.60;0.30;;;;;;;;;;4981912;28;20030;-85
2022/01/30 12:18:13;;;;;;;0.22;0.20;;;;;;;;;;5000636;28;20026;-84
2022/01/30 12:20:59;;;;;;;0.10;0.10;;;;;;;;;;4981932;28;20064;-84
2022/01/30 12:23:25;;;;;;;0.10;0.10;;;;;;;;;;4983060;28;20510;-85
2022/01/30 12:25:58;;;;;;;0.40;0.20;;;;;;;;;;5009814;28;20117;-86
2022/01/30 12:28:39;;;;;;;0.73;0.20;;;;;;;;;;4987563;28;20041;-86
2022/01/30 12:31:23;;;;;;;0.00;0.00;;;;;;;;;;4997751;28;20023;-86
2022/01/30 12:33:49;;;;;;;0.32;0.10;;;;;;;;;;4983782;28;20030;-86
2022/01/30 12:36:17;;;;;;;0.15;0.10;;;;;;;;;;4982627;28;20558;-86
2022/01/30 12:38:43;;;;;;;;;;;;;;;;;;4984896;28;20094;-86
2022/01/30 12:41:19;;;;;;;0.95;0.15;;;;;;;;;;4999841;28;19906;-85
2022/01/30 12:43:50;;;;;;;0.10;0.10;;;;;;;;;;5006333;28;20125;-86
2022/01/30 12:46:16;;;;;;;0.50;0.10;;;;;;;;;;4981260;28;20030;-85
2022/01/30 12:48:43;;;;;;;0.13;0.10;;;;;;;;;;4979038;28;20038;-86
2022/01/30 12:51:14;;;;;;;0.10;0.00;;;;;;;;;;4981067;28;20030;-85
2022/01/30 12:53:42;;;;;;;0.10;0.10;;;;;;;;;;4982000;28;20034;-86
2022/01/30 12:56:08;;;;;;;;;;;;;;;;;;4983777;28;20022;-86
2022/01/30 12:58:35;;;;;;;0.17;0.10;;;;;;;;;;5004095;28;20313;-86
2022/01/30 13:01:06;;;;;;;1.00;0.10;;;;;;;;;;4983247;28;20026;-86
2022/01/30 13:03:32;;;;;;;1.00;0.10;;;;;;;;;;4981781;28;20486;-84
2022/01/30 13:05:59;;;;;;;0.10;0.10;;;;;;;;;;4987934;28;20237;-88
2022/01/30 13:08:42;;;;;;;1.65;0.70;;;;;;;;;;4984490;28;20034;-85
2022/01/30 13:11:25;;;;;;;0.20;0.20;;;;;;;;;;4983852;28;20077;-84
2022/01/30 13:13:55;;;;;;;0.10;0.00;;;;;;;;;;4990592;28;20031;-84
2022/01/30 13:16:21;;;;;;;0.00;0.00;;;;;;;;;;4989337;28;20093;-86
2022/01/30 13:18:47;;;;;;;0.32;0.20;;;;;;;;;;4984468;28;20030;-85
2022/01/30 13:21:13;;;;;;;1.55;0.10;;;;;;;;;;4990390;28;20050;-86
2022/01/30 13:23:45;;;;;;;0.10;0.10;;;;;;;;;;4986891;28;20126;-87
2022/01/30 13:26:11;;;;;;;0.75;0.20;;;;;;;;;;5004898;28;20019;-87
2022/01/30 13:28:37;;;;;;;0.20;0.00;;;;;;;;;;5004523;28;20033;-87
2022/01/30 13:31:15;;;;;;;0.10;0.10;;;;;;;;;;4984504;28;20026;-88
2022/01/30 13:33:41;;;;;;;0.35;0.10;;;;;;;;;;4988197;28;20069;-88
2022/01/30 13:36:07;;;;;;;0.00;0.00;;;;;;;;;;5002019;28;20041;-89
2022/01/30 13:38:40;;;;;;;0.05;0.00;;;;;;;;;;4991722;28;20062;-90
2022/01/30 13:41:06;;;;;;;0.38;0.10;;;;;;;;;;4991290;28;20416;-89
2022/01/30 13:43:36;;;;;;;0.20;0.10;;;;;;;;;;4983460;28;20122;-90
2022/01/30 13:48:47;;;;;;;0.20;0.20;;;;;;;;;;4979539;28;20053;-90
2022/01/30 13:51:20;;;;;;;0.32;0.10;;;;;;;;;;4984200;28;20026;-88
2022/01/30 13:53:46;;;;;;;1.73;1.13;;;;;;;;;;5002987;28;20030;-87
2022/01/30 13:56:16;;;;;;;0.17;0.17;;;;;;;;;;4982044;28;20072;-87
2022/01/30 13:58:47;;;;;;;0.10;0.10;;;;;;;;;;5005871;28;20030;-87
2022/01/30 14:01:14;;;;;;;0.10;0.10;;;;;;;;;;4983226;28;20038;-87
2022/01/30 14:03:41;;;;;;;0.20;0.10;;;;;;;;;;4985744;28;20049;-87
2022/01/30 14:06:17;;;;;;;0.10;0.10;;;;;;;;;;4989670;28;20105;-86
2022/01/30 14:09:09;;;;;;;0.15;0.15;;;;;;;;;;4985719;28;20172;-88
2022/01/30 14:11:36;;;;;;;0.38;0.10;;;;;;;;;;4978825;28;20499;-88
2022/01/30 14:14:05;;;;;;;0.30;0.20;;;;;;;;;;4984371;28;20727;-88
2022/01/30 14:16:39;;;;;;;0.10;0.10;;;;;;;;;;4993175;28;20030;-88
2022/01/30 14:19:15;;;;;;;1.17;0.20;;;;;;;;;;4989785;28;20030;-87
2022/01/30 14:21:41;;;;;;;1.55;0.17;;;;;;;;;;4991367;28;20030;-88
2022/01/30 14:24:15;;;;;;;0.10;0.10;;;;;;;;;;4988475;28;20128;-87
2022/01/30 14:26:41;;;;;;;0.10;0.10;;;;;;;;;;4989295;28;20514;-87
2022/01/30 14:29:08;;;;;;;7.00;3.70;;;;;;;;;;4992227;28;20022;-84
2022/01/30 14:31:34;;;;;;;0.40;0.32;;;;;;;;;;4992143;28;20030;-90
2022/01/30 14:34:00;;;;;;;0.80;0.20;;;;;;;;;;4989450;28;20030;-87
2022/01/30 14:36:29;;;;;;;0.10;0.10;;;;;;;;;;4989113;28;20418;-87
2022/01/30 14:38:55;;;;;;;0.10;0.10;;;;;;;;;;4989934;28;20053;-87
2022/01/30 14:41:22;;;;;;;0.10;0.10;;;;;;;;;;4991591;28;20014;-87
2022/01/30 14:43:47;;;;;;;0.55;0.30;;;;;;;;;;5012570;28;20035;-87
2022/01/30 14:46:14;;;;;;;0.20;0.10;;;;;;;;;;4990174;28;20096;-87
2022/01/30 14:48:40;;;;;;;0.20;0.10;;;;;;;;;;4988855;28;20534;-85
2022/01/30 14:51:07;;;;;;;0.22;0.10;;;;;;;;;;4988215;28;20022;-87
2022/01/30 14:53:33;;;;;;;1.75;0.20;;;;;;;;;;4990301;28;20162;-86
2022/01/30 14:55:59;;;;;;;0.10;0.10;;;;;;;;;;4991620;28;20023;-87
2022/01/30 14:58:25;;;;;;;0.50;0.17;;;;;;;;;;5006665;28;20034;-86
2022/01/30 15:00:55;;;;;;;0.88;0.60;;;;;;;;;;4988541;28;20061;-86
2022/01/30 15:03:21;;;;;;;0.75;0.38;;;;;;;;;;4988641;28;20102;-87
2022/01/30 15:05:47;;;;;;;0.32;0.30;;;;;;;;;;4988150;28;20019;-86
2022/01/30 15:08:14;;;;;;;0.75;0.20;;;;;;;;;;4989172;28;20034;-88
2022/01/30 15:10:40;;;;;;;0.10;0.10;;;;;;;;;;5012308;28;20022;-87
2022/01/30 15:13:11;;;;;;;0.35;0.10;;;;;;;;;;4987053;28;20593;-88
2022/01/30 15:15:39;;;;;;;0.00;0.00;;;;;;;;;;4981928;28;20034;-87
2022/01/30 15:18:12;;;;;;;0.20;0.20;;;;;;;;;;4988537;28;20053;-86
2022/01/30 15:20:38;;;;;;;0.45;0.17;;;;;;;;;;4988757;28;20081;-87
2022/01/30 15:23:04;;;;;;;0.52;0.50;;;;;;;;;;4992534;28;20046;-86
2022/01/30 15:25:30;;;;;;;0.20;0.20;;;;;;;;;;5011223;28;20117;-87
2022/01/30 15:27:56;;;;;;;0.10;0.10;;;;;;;;;;4990270;28;20060;-86
2022/01/30 15:30:22;;;;;;;0.20;0.20;;;;;;;;;;4990515;28;20242;-87
2022/01/30 15:32:48;;;;;;;0.10;0.10;;;;;;;;;;4990715;28;20030;-86
2022/01/30 15:35:14;;;;;;;0.30;0.20;;;;;;;;;;4992012;28;20030;-85
2022/01/30 15:37:40;;;;;;;0.20;0.20;;;;;;;;;;4994445;28;20049;-87